createdAt,value
2023-05-02T00:02:05.117Z,101528.67
2023-05-02T00:04:32.274Z,101560.76
2023-05-02T00:06:59.490Z,101579.59
2023-05-02T00:09:26.566Z,101602.60
2023-05-02T00:11:53.611Z,101624.89
2023-05-02T00:14:20.661Z,101645.30
2023-05-02T00:16:47.856Z,101670.31
2023-05-02T00:19:14.954Z,101696.57
2023-05-02T00:21:41.900Z,101723.88
2023-05-02T00:24:08.947Z,101741.19
2023-05-02T00:26:36.199Z,101756.64
2023-05-02T00:29:03.245Z,101769.42
2023-05-02T00:31:30.443Z,101776.86
2023-05-02T00:33:57.548Z,101787.33
2023-05-02T00:36:24.695Z,101798.79
2023-05-02T00:38:51.639Z,101803.69
2023-05-02T00:41:18.890Z,101807.33
2023-05-02T00:43:45.937Z,101815.49
2023-05-02T00:46:13.549Z,101817.06
2023-05-02T00:48:40.850Z,101825.10
2023-05-02T00:51:13.632Z,101827.64
2023-05-02T00:53:41.395Z,101836.19
2023-05-02T00:56:09.702Z,101837.73
2023-05-02T00:58:38.352Z,101841.30
2023-05-02T01:01:15.319Z,101840.73
2023-05-02T01:03:51.797Z,101839.48
2023-05-02T01:06:57.350Z,101842.06
2023-05-02T01:09:34.341Z,101839.29
2023-05-02T01:12:26.050Z,101839.02
2023-05-02T01:14:57.443Z,101838.14
2023-05-02T01:17:28.782Z,101839.81
2023-05-02T01:19:58.469Z,101838.16
2023-05-02T01:22:27.935Z,101840.19
2023-05-02T01:24:58.283Z,101840.48
2023-05-02T01:27:31.370Z,101840.23
2023-05-02T01:29:59.006Z,101839.45
2023-05-02T01:32:26.531Z,101843.98
2023-05-02T01:34:53.536Z,101842.55
2023-05-02T01:37:20.483Z,101845.07
2023-05-02T01:39:47.530Z,101847.27
2023-05-02T01:42:14.785Z,101850.48
2023-05-02T01:44:41.835Z,101850.70
2023-05-02T01:47:08.898Z,101850.08
2023-05-02T01:49:35.925Z,101856.73
2023-05-02T01:52:05.291Z,101851.09
2023-05-02T01:54:32.270Z,101855.34
2023-05-02T01:56:59.323Z,101854.64
2023-05-02T01:59:26.682Z,101851.49
2023-05-02T02:01:53.728Z,101850.73
2023-05-02T02:04:21.688Z,101846.52
2023-05-02T02:06:52.404Z,101844.15
2023-05-02T02:09:19.572Z,101843.86
2023-05-02T02:11:54.059Z,101843.96
2023-05-02T02:14:22.903Z,101842.38
2023-05-02T02:16:51.073Z,101838.20
2023-05-02T02:19:18.098Z,101836.98
2023-05-02T02:21:45.159Z,101833.54
2023-05-02T02:24:12.198Z,101835.45
2023-05-02T02:26:39.152Z,101831.41
2023-05-02T02:29:06.195Z,101831.57
2023-05-02T02:31:34.435Z,101833.65
2023-05-02T02:34:02.123Z,101836.42
2023-05-02T02:36:31.423Z,101841.83
2023-05-02T02:39:25.917Z,101842.71
2023-05-02T02:42:10.264Z,101843.71
2023-05-02T02:45:06.095Z,101844.43
2023-05-02T02:47:44.628Z,101849.79
2023-05-02T02:50:25.364Z,101849.09
2023-05-02T02:52:56.359Z,101848.84
2023-05-02T02:55:44.556Z,101847.86
2023-05-02T02:58:14.874Z,101850.86
2023-05-02T03:00:42.122Z,101855.90
2023-05-02T03:03:09.229Z,101857.66
2023-05-02T03:05:36.323Z,101862.06
2023-05-02T03:08:03.371Z,101868.70
2023-05-02T03:10:30.626Z,101867.50
2023-05-02T03:12:57.977Z,101868.88
2023-05-02T03:15:31.680Z,101871.46
2023-05-02T03:17:59.559Z,101871.84
2023-05-02T03:20:26.717Z,101879.61
2023-05-02T03:22:53.951Z,101875.64
2023-05-02T03:25:20.993Z,101877.03
2023-05-02T03:27:48.812Z,101881.37
2023-05-02T03:30:16.109Z,101884.25
2023-05-02T03:32:43.416Z,101886.80
2023-05-02T03:35:10.817Z,101891.84
2023-05-02T03:37:38.889Z,101898.90
2023-05-02T03:40:07.061Z,101901.92
2023-05-02T03:42:41.482Z,101905.39
2023-05-02T03:45:14.261Z,101907.79
2023-05-02T03:47:41.850Z,101915.55
2023-05-02T03:50:09.590Z,101925.96
2023-05-02T03:52:36.943Z,101942.40
2023-05-02T03:55:04.705Z,101961.13
2023-05-02T03:57:31.751Z,101979.75
2023-05-02T03:59:59.266Z,102012.03
2023-05-02T04:02:28.106Z,102041.50
2023-05-02T04:04:55.405Z,102069.95
2023-05-02T04:07:25.886Z,102080.17
2023-05-02T04:10:03.370Z,102024.31
2023-05-02T04:12:35.235Z,101809.39
2023-05-02T04:15:02.685Z,101522.15
2023-05-02T04:17:30.501Z,101370.30
2023-05-02T04:19:57.559Z,101396.59
2023-05-02T04:22:26.904Z,101486.80
2023-05-02T04:24:58.045Z,101562.23
2023-05-02T04:27:26.216Z,101603.84
2023-05-02T04:29:56.750Z,101630.39
2023-05-02T04:32:23.857Z,101652.09
2023-05-02T04:34:52.062Z,101672.05
2023-05-02T04:37:21.116Z,101687.58
2023-05-02T04:39:49.362Z,101701.17
2023-05-02T04:42:20.070Z,101699.77
2023-05-02T04:44:55.204Z,101652.13
2023-05-02T04:47:22.320Z,101675.08
2023-05-02T04:49:49.498Z,101694.23
2023-05-02T04:52:16.557Z,101725.84
2023-05-02T04:54:44.514Z,101695.39
2023-05-02T04:57:11.972Z,101689.23
2023-05-02T04:59:43.322Z,101695.32
2023-05-02T05:02:12.949Z,101696.05
2023-05-02T05:04:40.597Z,101677.33
2023-05-02T05:07:07.883Z,101652.14
2023-05-02T05:09:35.148Z,101615.55
2023-05-02T05:12:02.261Z,101634.88
2023-05-02T05:14:31.645Z,101645.41
2023-05-02T05:16:59.547Z,101626.60
2023-05-02T05:19:27.066Z,101651.28
2023-05-02T05:21:54.332Z,101625.36
2023-05-02T05:24:21.890Z,101623.60
2023-05-02T05:26:50.054Z,101605.10
2023-05-02T05:29:18.497Z,101582.46
2023-05-02T05:31:46.145Z,101615.63
2023-05-02T05:34:15.746Z,101637.38
2023-05-02T05:36:43.669Z,101605.92
2023-05-02T05:39:11.023Z,101656.05
2023-05-02T05:41:39.914Z,101679.20
2023-05-02T05:44:09.415Z,101698.73
2023-05-02T05:46:36.434Z,101717.40
2023-05-02T05:49:04.438Z,101686.28
2023-05-02T05:51:32.500Z,101688.52
2023-05-02T05:54:00.687Z,101664.44
2023-05-02T05:56:28.338Z,101637.65
2023-05-02T05:59:05.115Z,101670.45
2023-05-02T06:01:32.475Z,101698.81
2023-05-02T06:04:00.327Z,101712.79
2023-05-02T06:06:27.758Z,101653.41
2023-05-02T06:08:54.956Z,101647.34
2023-05-02T06:11:22.822Z,101616.34
2023-05-02T06:13:50.064Z,101646.56
2023-05-02T06:16:18.978Z,101618.13
2023-05-02T06:18:46.713Z,101624.35
2023-05-02T06:21:14.276Z,101656.90
2023-05-02T06:23:41.247Z,101611.74
2023-05-02T06:26:08.372Z,101584.23
2023-05-02T06:28:35.533Z,101651.89
2023-05-02T06:31:06.243Z,101616.39
2023-05-02T06:33:34.176Z,101626.70
2023-05-02T06:36:02.414Z,101606.52
2023-05-02T06:38:29.781Z,101581.72
2023-05-02T06:40:56.799Z,101508.94
2023-05-02T06:43:23.953Z,101495.64
2023-05-02T06:45:55.083Z,101464.45
2023-05-02T06:48:22.538Z,101443.85
2023-05-02T06:50:49.892Z,101486.70
2023-05-02T06:53:17.037Z,101375.77
2023-05-02T06:55:45.221Z,101370.75
2023-05-02T06:58:12.279Z,101335.98
2023-05-02T07:00:39.236Z,101269.09
2023-05-02T07:03:06.445Z,101272.33
2023-05-02T07:05:33.506Z,101298.95
2023-05-02T07:08:00.484Z,101304.50
2023-05-02T07:10:27.492Z,101331.92
2023-05-02T07:12:54.541Z,101244.46
2023-05-02T07:15:21.483Z,101089.84
2023-05-02T07:17:49.742Z,101096.28
2023-05-02T07:20:16.924Z,101032.21
2023-05-02T07:22:43.957Z,101062.14
2023-05-02T07:25:11.359Z,101015.16
2023-05-02T07:27:38.469Z,101006.14
2023-05-02T07:30:06.878Z,100963.00
2023-05-02T07:32:34.065Z,100855.67
2023-05-02T07:35:01.979Z,100895.30
2023-05-02T07:37:34.213Z,100826.34
2023-05-02T07:40:01.988Z,100802.23
2023-05-02T07:42:32.528Z,100833.89
2023-05-02T07:44:59.923Z,100746.16
2023-05-02T07:47:27.370Z,100481.36
2023-05-02T07:49:54.583Z,100263.80
2023-05-02T07:52:21.835Z,100157.66
2023-05-02T07:54:49.918Z,100201.50
2023-05-02T07:57:17.478Z,100318.17
2023-05-02T07:59:44.514Z,100303.73
2023-05-02T08:02:14.034Z,100392.55
2023-05-02T08:04:41.472Z,100352.14
2023-05-02T08:07:08.616Z,100172.35
2023-05-02T08:09:35.567Z,100078.95
2023-05-02T08:12:03.594Z,100085.83
2023-05-02T08:14:30.896Z,100117.64
2023-05-02T08:16:58.764Z,100136.02
2023-05-02T08:19:25.912Z,100118.20
2023-05-02T08:21:56.241Z,100155.45
2023-05-02T08:24:23.483Z,100139.67
2023-05-02T08:26:51.035Z,100203.60
2023-05-02T08:29:18.096Z,100279.27
2023-05-02T08:31:45.137Z,100296.36
2023-05-02T08:34:12.381Z,100290.65
2023-05-02T08:36:39.440Z,100268.90
2023-05-02T08:39:08.425Z,100269.95
2023-05-02T08:41:35.910Z,100169.41
2023-05-02T08:44:03.190Z,100096.49
2023-05-02T08:46:30.431Z,99983.29
2023-05-02T08:48:59.335Z,100024.79
2023-05-02T08:51:29.364Z,100069.04
2023-05-02T08:53:56.746Z,99867.08
2023-05-02T08:56:23.694Z,99762.14
2023-05-02T08:58:51.242Z,99837.98
2023-05-02T09:01:21.528Z,99989.02
2023-05-02T09:03:49.156Z,100068.58
2023-05-02T09:06:17.661Z,100028.58
2023-05-02T09:08:46.399Z,100045.86
2023-05-02T09:11:13.689Z,100080.35
2023-05-02T09:13:42.287Z,100116.86
2023-05-02T09:16:13.048Z,100021.17
2023-05-02T09:18:45.717Z,99907.93
2023-05-02T09:21:16.685Z,100016.35
2023-05-02T09:23:46.906Z,99986.27
2023-05-02T09:26:21.636Z,99941.55
2023-05-02T09:28:53.295Z,99926.55
2023-05-02T09:31:49.623Z,99855.27
2023-05-02T09:34:17.518Z,99732.52
2023-05-02T09:36:46.688Z,99819.25
2023-05-02T09:39:15.894Z,99926.02
2023-05-02T09:41:43.857Z,99865.86
2023-05-02T09:44:12.564Z,99820.52
2023-05-02T09:46:43.814Z,99745.38
2023-05-02T09:49:10.925Z,99808.40
2023-05-02T09:51:38.078Z,99849.63
2023-05-02T09:54:05.237Z,99822.73
2023-05-02T09:56:32.493Z,99747.61
2023-05-02T09:59:15.414Z,99706.58
2023-05-02T10:01:42.562Z,99766.13
2023-05-02T10:04:17.088Z,99744.73
2023-05-02T10:06:44.935Z,99688.63
2023-05-02T10:09:15.404Z,99744.77
2023-05-02T10:11:45.687Z,99751.38
2023-05-02T10:14:12.979Z,99805.67
2023-05-02T10:17:01.801Z,99762.33
2023-05-02T10:19:39.403Z,99696.84
2023-05-02T10:22:06.556Z,99775.27
2023-05-02T10:24:34.010Z,99775.25
2023-05-02T10:29:32.468Z,99547.83
2023-05-02T10:32:01.123Z,99591.98
2023-05-02T10:34:28.234Z,99614.89
2023-05-02T10:36:56.711Z,99599.45
2023-05-02T10:39:25.089Z,99596.16
2023-05-02T10:41:53.049Z,99603.70
2023-05-02T10:44:35.979Z,99631.71
2023-05-02T10:47:21.991Z,99719.33
2023-05-02T10:49:55.982Z,99666.73
2023-05-02T10:52:26.820Z,99669.73
2023-05-02T10:55:23.459Z,99632.93
2023-05-02T10:58:08.923Z,99650.92
2023-05-02T11:00:35.989Z,99677.78
2023-05-02T11:03:04.010Z,99703.29
2023-05-02T11:05:31.397Z,99709.81
2023-05-02T11:08:19.325Z,99648.70
2023-05-02T11:10:48.230Z,99677.75
2023-05-02T11:13:16.019Z,99593.58
2023-05-02T11:15:43.034Z,99579.23
2023-05-02T11:18:14.071Z,99611.34
2023-05-02T11:20:42.039Z,99596.94
2023-05-02T11:23:21.749Z,99492.80
2023-05-02T11:25:49.582Z,99566.21
2023-05-02T11:28:38.821Z,99537.57
2023-05-02T11:31:06.802Z,99493.33
2023-05-02T11:33:34.447Z,99555.67
2023-05-02T11:36:01.622Z,99506.34
2023-05-02T11:38:36.785Z,99482.17
2023-05-02T11:41:04.638Z,99544.52
2023-05-02T11:43:32.538Z,99525.55
2023-05-02T11:46:01.732Z,99593.63
2023-05-02T11:48:29.134Z,99516.91
2023-05-02T11:50:58.109Z,99553.02
2023-05-02T11:53:26.391Z,99622.37
2023-05-02T11:55:55.542Z,99682.70
2023-05-02T11:58:24.095Z,99638.27
2023-05-02T12:00:52.137Z,99619.93
2023-05-02T12:03:29.787Z,99612.31
2023-05-02T12:05:57.859Z,99566.29
2023-05-02T12:08:27.981Z,99583.51
2023-05-02T12:10:55.906Z,99573.49
2023-05-02T12:13:24.472Z,99557.86
2023-05-02T12:15:52.300Z,99562.00
2023-05-02T12:18:22.037Z,99582.81
2023-05-02T12:20:49.401Z,99627.16
2023-05-02T12:23:16.370Z,99653.05
2023-05-02T12:25:43.407Z,99623.59
2023-05-02T12:28:10.646Z,99591.67
2023-05-02T12:30:41.693Z,99591.48
2023-05-02T12:33:08.799Z,99558.64
2023-05-02T12:35:36.820Z,99583.45
2023-05-02T12:38:16.442Z,99679.98
2023-05-02T12:40:53.629Z,99603.27
2023-05-02T12:43:22.289Z,99510.05
2023-05-02T12:45:50.039Z,99481.48
2023-05-02T12:48:28.586Z,99508.02
2023-05-02T12:50:55.666Z,99489.36
2023-05-02T12:53:43.526Z,99463.16
2023-05-02T12:56:11.153Z,99533.16
2023-05-02T12:58:43.189Z,99629.28
2023-05-02T13:01:11.092Z,99670.06
2023-05-02T13:03:38.247Z,99682.34
2023-05-02T13:06:05.993Z,99785.43
2023-05-02T13:08:34.360Z,99811.25
2023-05-02T13:11:03.030Z,99768.44
2023-05-02T13:13:30.905Z,99863.63
2023-05-02T13:15:57.954Z,99889.73
2023-05-02T13:18:25.250Z,99892.01
2023-05-02T13:20:52.352Z,99899.10
2023-05-02T13:23:19.406Z,99862.92
2023-05-02T13:25:46.342Z,99857.60
2023-05-02T13:28:13.293Z,99862.49
2023-05-02T13:30:40.679Z,99827.96
2023-05-02T13:33:09.401Z,99825.78
2023-05-02T13:35:36.594Z,99856.84
2023-05-02T13:38:03.957Z,99900.73
2023-05-02T13:40:31.091Z,99850.20
2023-05-02T13:42:58.143Z,99880.18
2023-05-02T13:45:25.069Z,99912.48
2023-05-02T13:47:52.077Z,99835.98
2023-05-02T13:50:19.270Z,99823.73
2023-05-02T13:52:48.393Z,99831.85
2023-05-02T13:55:16.129Z,99765.98
2023-05-02T13:57:43.782Z,99863.84
2023-05-02T14:00:11.626Z,99861.73
2023-05-02T14:02:39.303Z,99806.51
2023-05-02T14:05:07.257Z,99779.22
2023-05-02T14:07:34.227Z,99754.17
2023-05-02T14:10:01.510Z,99772.65
2023-05-02T14:12:28.833Z,99780.39
2023-05-02T14:14:55.897Z,99788.58
2023-05-02T14:17:25.314Z,99778.10
2023-05-02T14:19:52.562Z,99761.09
2023-05-02T14:22:19.711Z,99813.49
2023-05-02T14:24:46.939Z,99802.10
2023-05-02T14:27:18.360Z,99800.33
2023-05-02T14:29:46.245Z,99781.89
2023-05-02T14:32:13.704Z,99797.52
2023-05-02T14:34:41.761Z,99745.33
2023-05-02T14:37:09.384Z,99702.27
2023-05-02T14:39:37.063Z,99725.13
2023-05-02T14:42:04.683Z,99728.91
2023-05-02T14:44:32.221Z,99799.61
2023-05-02T14:46:59.614Z,99807.52
2023-05-02T14:49:27.445Z,99856.25
2023-05-02T14:51:56.280Z,99833.89
2023-05-02T14:54:31.056Z,99816.39
2023-05-02T14:56:59.952Z,99854.50
2023-05-02T14:59:30.777Z,99830.77
2023-05-02T15:01:58.169Z,99803.36
2023-05-02T15:04:27.430Z,99786.13
2023-05-02T15:06:55.669Z,99839.83
2023-05-02T15:09:23.571Z,99780.20
2023-05-02T15:11:50.619Z,99783.59
2023-05-02T15:14:17.503Z,99820.58
2023-05-02T15:16:45.020Z,99773.33
2023-05-02T15:19:12.169Z,99772.14
2023-05-02T15:21:39.217Z,99716.33
2023-05-02T15:24:06.602Z,99718.51
2023-05-02T15:26:34.023Z,99769.27
2023-05-02T15:29:01.202Z,99781.33
2023-05-02T15:31:28.562Z,99705.20
2023-05-02T15:33:55.899Z,99729.73
2023-05-02T15:36:27.023Z,99720.95
2023-05-02T15:38:53.976Z,99691.55
2023-05-02T15:41:21.134Z,99738.05
2023-05-02T15:43:48.167Z,99761.96
2023-05-02T15:46:16.457Z,99744.62
2023-05-02T15:48:43.698Z,99725.83
2023-05-02T15:51:10.950Z,99756.30
2023-05-02T15:53:42.401Z,99730.13
2023-05-02T15:56:09.957Z,99752.30
2023-05-02T15:58:37.106Z,99798.52
2023-05-02T16:01:04.412Z,99766.02
2023-05-02T16:03:32.223Z,99764.85
2023-05-02T16:05:59.649Z,99749.97
2023-05-02T16:08:29.695Z,99758.04
2023-05-02T16:10:58.016Z,99763.91
2023-05-02T16:13:25.017Z,99848.88
2023-05-02T16:15:52.807Z,99936.31
2023-05-02T16:18:19.931Z,100026.95
2023-05-02T16:20:47.997Z,100039.77
2023-05-02T16:23:14.941Z,100090.58
2023-05-02T16:25:41.884Z,100217.66
2023-05-02T16:28:09.041Z,100286.30
2023-05-02T16:30:37.438Z,100297.70
2023-05-02T16:33:04.732Z,100339.07
2023-05-02T16:35:32.128Z,100392.93
2023-05-02T16:37:59.065Z,100457.35
2023-05-02T16:40:28.223Z,100487.27
2023-05-02T16:42:55.675Z,100559.73
2023-05-02T16:45:22.974Z,100676.36
2023-05-02T16:47:50.067Z,100760.54
2023-05-02T16:50:17.274Z,100979.80
2023-05-02T16:52:44.736Z,101092.04
2023-05-02T16:55:12.385Z,101053.76
2023-05-02T16:57:39.542Z,101047.79
2023-05-02T17:00:10.507Z,101226.34
2023-05-02T17:02:37.526Z,101421.36
2023-05-02T17:05:05.184Z,101426.83
2023-05-02T17:07:32.431Z,101405.91
2023-05-02T17:09:59.648Z,101477.80
2023-05-02T17:12:27.450Z,101505.75
2023-05-02T17:14:54.724Z,101497.32
2023-05-02T17:17:23.693Z,101608.03
2023-05-02T17:19:51.050Z,101746.84
2023-05-02T17:22:19.142Z,101829.04
2023-05-02T17:24:48.738Z,101832.84
2023-05-02T17:27:15.712Z,101816.59
2023-05-02T17:29:42.820Z,101870.63
2023-05-02T17:32:11.407Z,101905.27
2023-05-02T17:34:38.965Z,101920.36
2023-05-02T17:37:07.464Z,101952.31
2023-05-02T17:39:34.499Z,101961.66
2023-05-02T17:42:01.742Z,101973.63
2023-05-02T17:44:31.582Z,102003.84
2023-05-02T17:46:58.702Z,102059.91
2023-05-02T17:49:26.066Z,102122.02
2023-05-02T17:51:53.094Z,102182.55
2023-05-02T17:54:20.659Z,102231.52
2023-05-02T17:56:47.601Z,102245.55
2023-05-02T17:59:15.374Z,102313.18
2023-05-02T18:01:42.633Z,102369.54
2023-05-02T18:04:12.935Z,102391.58
2023-05-02T18:06:41.266Z,102329.21
2023-05-02T18:09:09.080Z,102087.98
2023-05-02T18:11:40.127Z,101807.94
2023-05-02T18:14:07.392Z,101718.67
2023-05-02T18:16:36.387Z,101686.23
2023-05-02T18:19:03.726Z,101645.02
2023-05-02T18:21:34.052Z,101592.84
2023-05-02T18:24:01.094Z,101541.36
2023-05-02T18:26:28.653Z,101482.30
2023-05-02T18:28:55.706Z,101430.50
2023-05-02T18:31:24.109Z,101387.11
2023-05-02T18:33:52.996Z,101364.20
2023-05-02T18:36:28.787Z,101352.48
2023-05-02T18:38:56.496Z,101338.34
2023-05-02T18:41:24.041Z,101336.08
2023-05-02T18:43:51.185Z,101337.89
2023-05-02T18:46:18.179Z,101341.29
2023-05-02T18:48:45.485Z,101351.89
2023-05-02T18:51:12.532Z,101355.63
2023-05-02T18:53:39.576Z,101363.84
2023-05-02T18:56:14.591Z,101384.75
2023-05-02T18:58:42.377Z,101415.63
2023-05-02T19:01:16.079Z,101451.45
2023-05-02T19:03:44.018Z,101485.40
2023-05-02T19:06:11.452Z,101522.75
2023-05-02T19:08:40.436Z,101554.81
2023-05-02T19:11:07.689Z,101601.63
2023-05-02T19:13:34.701Z,101646.38
2023-05-02T19:16:01.782Z,101684.47
2023-05-02T19:18:28.800Z,101713.27
2023-05-02T19:20:56.060Z,101740.48
2023-05-02T19:23:23.396Z,101761.16
2023-05-02T19:25:50.553Z,101788.70
2023-05-02T19:28:17.604Z,101825.02
2023-05-02T19:30:44.838Z,101868.41
2023-05-02T19:33:12.039Z,101897.01
2023-05-02T19:35:39.625Z,101924.38
2023-05-02T19:38:06.709Z,101948.30
2023-05-02T19:40:33.744Z,101971.23
2023-05-02T19:43:00.901Z,101995.19
2023-05-02T19:45:27.938Z,102011.76
2023-05-02T19:47:55.072Z,102024.08
2023-05-02T19:50:22.135Z,102035.17
2023-05-02T19:52:50.844Z,102039.92
2023-05-02T19:55:18.731Z,102042.13
2023-05-02T19:57:45.842Z,102048.23
2023-05-02T20:00:14.273Z,102054.91
2023-05-02T20:02:41.534Z,102058.09
2023-05-02T20:05:09.199Z,102057.91
2023-05-02T20:07:36.381Z,102060.17
2023-05-02T20:10:03.963Z,102066.41
2023-05-02T20:12:31.307Z,102069.66
2023-05-02T20:14:58.336Z,102078.95
2023-05-02T20:17:25.814Z,102077.75
2023-05-02T20:19:52.942Z,102081.73
2023-05-02T20:22:20.032Z,102085.79
2023-05-02T20:24:47.034Z,102097.59
2023-05-02T20:27:14.081Z,102101.89
2023-05-02T20:29:41.133Z,102103.83
2023-05-02T20:32:08.584Z,102110.84
2023-05-02T20:34:35.845Z,102116.30
2023-05-02T20:37:05.464Z,102114.86
2023-05-02T20:39:32.702Z,102112.83
2023-05-02T20:41:59.739Z,102110.82
2023-05-02T20:44:28.671Z,102109.27
2023-05-02T20:46:55.996Z,102109.23
2023-05-02T20:49:22.928Z,102103.50
2023-05-02T20:51:50.794Z,102103.09
2023-05-02T20:54:20.917Z,102100.42
2023-05-02T20:56:47.969Z,102097.10
2023-05-02T20:59:15.010Z,102092.61
2023-05-02T21:01:41.993Z,102088.49
2023-05-02T21:04:09.166Z,102088.36
2023-05-02T21:06:36.493Z,102087.91
2023-05-02T21:09:04.019Z,102088.05
2023-05-02T21:11:31.727Z,102084.46
2023-05-02T21:13:58.724Z,102085.04
2023-05-02T21:16:25.875Z,102076.02
2023-05-02T21:18:53.847Z,102077.71
2023-05-02T21:21:20.893Z,102076.02
2023-05-02T21:23:47.840Z,102072.74
2023-05-02T21:26:14.789Z,102074.39
2023-05-02T21:28:42.034Z,102077.29
2023-05-02T21:31:09.177Z,102079.43
2023-05-02T21:33:36.436Z,102089.98
2023-05-02T21:36:03.581Z,102093.36
2023-05-02T21:38:30.624Z,102097.27
2023-05-02T21:41:04.325Z,102090.06
2023-05-02T21:43:34.634Z,102094.71
2023-05-02T21:46:01.907Z,102094.38
2023-05-02T21:48:28.848Z,102097.13
2023-05-02T21:50:55.792Z,102096.86
2023-05-02T21:53:22.839Z,102096.18
2023-05-02T21:55:49.888Z,102095.38
2023-05-02T21:58:16.941Z,102093.95
2023-05-02T22:00:43.942Z,102094.37
2023-05-02T22:03:12.135Z,102099.38
2023-05-02T22:05:42.680Z,102096.64
2023-05-02T22:08:11.237Z,102098.45
2023-05-02T22:10:39.450Z,102097.21
2023-05-02T22:13:09.602Z,102097.60
2023-05-02T22:15:36.909Z,102099.70
2023-05-02T22:18:06.933Z,102100.27
2023-05-02T22:20:34.117Z,102099.49
2023-05-02T22:23:01.120Z,102100.04
2023-05-02T22:25:28.063Z,102099.35
2023-05-02T22:27:55.029Z,102095.77
2023-05-02T22:30:22.365Z,102097.70
2023-05-02T22:32:49.324Z,102096.89
2023-05-02T22:35:16.868Z,102099.16
2023-05-02T22:37:43.914Z,102100.17
2023-05-02T22:40:12.876Z,102103.61
2023-05-02T22:42:39.958Z,102103.00
2023-05-02T22:47:51.493Z,102127.83
2023-05-02T22:50:20.036Z,102108.11
2023-05-02T22:52:49.401Z,102106.00
2023-05-02T22:55:16.517Z,102110.10
2023-05-02T22:57:43.948Z,102109.52
2023-05-02T23:00:12.445Z,102107.74
2023-05-02T23:02:40.020Z,102109.71
2023-05-02T23:05:07.852Z,102107.77
2023-05-02T23:07:34.895Z,102109.95
2023-05-02T23:10:02.158Z,102111.91
2023-05-02T23:12:29.291Z,102115.63
2023-05-02T23:14:57.059Z,102116.61
2023-05-02T23:17:24.153Z,102126.47
2023-05-02T23:19:51.265Z,102123.98
2023-05-02T23:22:18.297Z,102128.61
2023-05-02T23:24:46.930Z,102129.13
2023-05-02T23:27:14.133Z,102129.30
2023-05-02T23:29:41.177Z,102134.44
2023-05-02T23:32:08.538Z,102131.67
2023-05-02T23:34:38.446Z,102133.68
2023-05-02T23:37:06.943Z,102128.35
2023-05-02T23:39:34.076Z,102132.88
2023-05-02T23:42:03.954Z,102135.77
2023-05-02T23:44:31.573Z,102136.86
2023-05-02T23:46:59.648Z,102137.91
2023-05-02T23:49:26.983Z,102140.14
2023-05-02T23:51:54.372Z,102137.84
2023-05-02T23:54:21.406Z,102135.82
2023-05-02T23:56:48.425Z,102133.62
2023-05-02T23:59:15.474Z,102133.66
